Time;durP1;ratioP1;P1;durP2;ratioP2;P2;SDS_P1;SDS_P2;PMS_P1;PMS_P2;Temp;Humidity;BMP_temperature;BMP_pressure;BME280_temperature;BME280_humidity;BME280_pressure;Samples;Min_cycle;Max_cycle;Signal;HPM_P1;HPM_P2
2022/04/04 00:01:45;;;;;;;6.17;3.23;;;;;;;;;;5280376;28;20013;-69
2022/04/04 00:04:16;;;;;;;5.10;3.23;;;;;;;;;;5280910;28;20100;-68
2022/04/04 00:06:47;;;;;;;6.47;4.05;;;;;;;;;;5279483;28;20024;-69
2022/04/04 00:09:18;;;;;;;7.13;3.50;;;;;;;;;;5280912;28;20016;-69
2022/04/04 00:11:49;;;;;;;6.28;4.05;;;;;;;;;;5280168;28;20052;-69
2022/04/04 00:14:21;;;;;;;8.18;4.04;;;;;;;;;;5279877;28;20053;-69
2022/04/04 00:16:52;;;;;;;5.17;3.80;;;;;;;;;;5280166;28;20099;-70
2022/04/04 00:19:24;;;;;;;8.10;3.50;;;;;;;;;;5280379;28;20021;-69
2022/04/04 00:21:56;;;;;;;5.90;3.75;;;;;;;;;;5283331;28;20039;-69
2022/04/04 00:24:27;;;;;;;5.80;3.53;;;;;;;;;;5284620;28;20537;-68
2022/04/04 00:26:59;;;;;;;6.18;3.97;;;;;;;;;;5283096;28;20021;-68
2022/04/04 00:29:30;;;;;;;6.07;3.37;;;;;;;;;;5284144;28;20047;-68
2022/04/04 00:32:01;;;;;;;6.40;4.13;;;;;;;;;;5283995;28;20025;-69
2022/04/04 00:34:32;;;;;;;7.50;3.87;;;;;;;;;;5283018;28;20491;-69
2022/04/04 00:37:04;;;;;;;7.80;4.10;;;;;;;;;;5283744;28;20020;-69
2022/04/04 00:39:35;;;;;;;8.03;4.00;;;;;;;;;;5283976;28;20502;-69
2022/04/04 00:42:06;;;;;;;4.90;3.30;;;;;;;;;;5282923;28;20058;-69
2022/04/04 00:44:37;;;;;;;6.50;4.20;;;;;;;;;;5283785;28;20107;-68
2022/04/04 00:47:09;;;;;;;8.88;4.26;;;;;;;;;;5283749;28;20029;-68
2022/04/04 00:49:40;;;;;;;6.20;4.20;;;;;;;;;;5282992;28;20041;-69
2022/04/04 00:52:11;;;;;;;6.30;3.67;;;;;;;;;;5283820;28;20027;-69
2022/04/04 00:54:43;;;;;;;6.03;4.23;;;;;;;;;;5282772;28;20025;-69
2022/04/04 00:57:15;;;;;;;6.10;3.90;;;;;;;;;;5283495;28;20013;-68
2022/04/04 00:59:47;;;;;;;8.50;4.80;;;;;;;;;;5283081;28;20013;-68
2022/04/04 01:02:18;;;;;;;8.20;4.60;;;;;;;;;;5283128;28;20029;-67
2022/04/04 01:04:49;;;;;;;6.57;4.33;;;;;;;;;;5283256;28;20070;-68
2022/04/04 01:07:20;;;;;;;7.93;4.83;;;;;;;;;;5283727;28;20028;-68
2022/04/04 01:09:51;;;;;;;6.74;3.84;;;;;;;;;;5282219;28;20095;-68
2022/04/04 01:12:23;;;;;;;7.63;4.40;;;;;;;;;;5283113;28;20049;-67
2022/04/04 01:14:54;;;;;;;7.70;4.70;;;;;;;;;;5283137;28;20024;-69
2022/04/04 01:17:27;;;;;;;7.23;4.50;;;;;;;;;;5282813;28;20005;-68
2022/04/04 01:19:58;;;;;;;7.50;4.50;;;;;;;;;;5282839;28;20044;-68
2022/04/04 01:22:29;;;;;;;6.83;4.83;;;;;;;;;;5282951;28;20052;-69
2022/04/04 01:25:04;;;;;;;5.67;3.70;;;;;;;;;;5282495;28;20028;-68
2022/04/04 01:27:36;;;;;;;7.50;4.57;;;;;;;;;;5282896;28;20044;-69
2022/04/04 01:30:07;;;;;;;9.27;4.60;;;;;;;;;;5282382;28;20446;-69
2022/04/04 01:32:39;;;;;;;7.70;4.67;;;;;;;;;;5282413;28;20021;-68
2022/04/04 01:35:10;;;;;;;5.37;4.27;;;;;;;;;;5282760;28;20029;-68
2022/04/04 01:37:41;;;;;;;6.47;4.07;;;;;;;;;;5282023;28;20349;-68
2022/04/04 01:40:15;;;;;;;8.23;4.97;;;;;;;;;;5282794;28;20028;-69
2022/04/04 01:42:48;;;;;;;8.57;4.90;;;;;;;;;;5282275;28;20016;-69
2022/04/04 01:46:23;;;;;;;5.80;4.00;;;;;;;;;;5282170;28;20088;-69
2022/04/04 01:48:11;;;;;;;5.63;3.60;;;;;;;;;;5282280;28;20020;-69
2022/04/04 01:50:42;;;;;;;6.87;3.90;;;;;;;;;;5282470;28;20012;-69
2022/04/04 01:53:25;;;;;;;5.80;3.92;;;;;;;;;;5281433;28;20036;-69
2022/04/04 01:55:58;;;;;;;8.87;4.33;;;;;;;;;;5282177;28;20017;-69
2022/04/04 01:58:29;;;;;;;8.03;4.33;;;;;;;;;;5281437;28;20223;-68
2022/04/04 02:01:01;;;;;;;9.17;5.10;;;;;;;;;;5282270;28;20025;-68
2022/04/04 02:03:33;;;;;;;7.53;4.47;;;;;;;;;;5282038;28;20105;-69
2022/04/04 02:06:04;;;;;;;6.47;4.17;;;;;;;;;;5281236;28;20103;-69
2022/04/04 02:08:35;;;;;;;6.40;4.13;;;;;;;;;;5281983;28;20059;-69
2022/04/04 02:11:07;;;;;;;7.17;4.30;;;;;;;;;;5282195;28;20029;-68
2022/04/04 02:13:38;;;;;;;6.43;1.93;;;;;;;;;;5280808;28;20136;-68
2022/04/04 02:16:10;;;;;;;7.20;3.77;;;;;;;;;;5281809;28;20025;-68
2022/04/04 02:18:42;;;;;;;12.13;4.93;;;;;;;;;;5281755;28;20502;-68
2022/04/04 02:21:13;;;;;;;5.13;3.70;;;;;;;;;;5281160;28;20028;-69
2022/04/04 02:23:44;;;;;;;5.67;3.90;;;;;;;;;;5281755;28;20179;-70
2022/04/04 02:26:15;;;;;;;6.87;3.77;;;;;;;;;;5281238;28;20024;-69
2022/04/04 02:28:46;;;;;;;4.10;3.00;;;;;;;;;;5281396;28;20020;-70
2022/04/04 02:31:18;;;;;;;5.77;3.83;;;;;;;;;;5281859;28;20031;-68
2022/04/04 02:33:50;;;;;;;6.13;3.13;;;;;;;;;;5280412;28;20052;-68
2022/04/04 02:36:21;;;;;;;5.47;3.57;;;;;;;;;;5282013;28;20017;-69
2022/04/04 02:38:52;;;;;;;6.30;3.10;;;;;;;;;;5281095;28;20020;-69
2022/04/04 02:41:23;;;;;;;6.92;3.40;;;;;;;;;;5280903;28;20024;-69
2022/04/04 02:43:55;;;;;;;5.80;3.17;;;;;;;;;;5280541;28;20016;-69
2022/04/04 02:46:26;;;;;;;4.33;3.13;;;;;;;;;;5281858;28;20443;-69
2022/04/04 02:48:57;;;;;;;6.70;3.57;;;;;;;;;;5280371;28;20024;-68
2022/04/04 02:51:28;;;;;;;4.72;2.88;;;;;;;;;;5281619;28;20103;-69
2022/04/04 02:54:00;;;;;;;5.53;3.47;;;;;;;;;;5280989;28;20455;-69
2022/04/04 02:56:32;;;;;;;5.60;2.97;;;;;;;;;;5280353;28;20013;-68
2022/04/04 02:59:03;;;;;;;6.40;3.10;;;;;;;;;;5281366;28;20406;-69
2022/04/04 03:01:35;;;;;;;6.67;3.67;;;;;;;;;;5280450;28;20089;-69
2022/04/04 03:04:06;;;;;;;7.37;3.00;;;;;;;;;;5281266;28;20052;-69
2022/04/04 03:06:37;;;;;;;6.40;2.83;;;;;;;;;;5280998;28;20054;-68
2022/04/04 03:09:09;;;;;;;5.18;2.72;;;;;;;;;;5280493;28;20479;-68
2022/04/04 03:11:40;;;;;;;5.90;3.40;;;;;;;;;;5281135;28;20017;-69
2022/04/04 03:14:11;;;;;;;7.93;3.60;;;;;;;;;;5280973;28;20059;-68
2022/04/04 03:16:43;;;;;;;7.72;3.75;;;;;;;;;;5280153;28;20082;-68
2022/04/04 03:19:14;;;;;;;6.23;3.23;;;;;;;;;;5280899;28;20025;-68
2022/04/04 03:21:46;;;;;;;5.60;2.97;;;;;;;;;;5280413;28;20107;-68
2022/04/04 03:24:17;;;;;;;8.53;3.07;;;;;;;;;;5280549;28;20418;-69
2022/04/04 03:26:48;;;;;;;8.07;2.30;;;;;;;;;;5280725;28;20366;-69
2022/04/04 03:29:19;;;;;;;6.43;2.65;;;;;;;;;;5280250;28;20024;-69
2022/04/04 03:31:50;;;;;;;5.77;2.97;;;;;;;;;;5280793;28;20640;-69
2022/04/04 03:34:22;;;;;;;7.50;3.07;;;;;;;;;;5280980;28;20086;-70
2022/04/04 03:36:53;;;;;;;6.50;2.57;;;;;;;;;;5279713;28;20509;-69
2022/04/04 03:39:24;;;;;;;6.06;2.74;;;;;;;;;;5281032;28;20035;-69
2022/04/04 03:41:57;;;;;;;6.72;3.00;;;;;;;;;;5280359;28;20467;-69
2022/04/04 03:44:28;;;;;;;4.43;3.13;;;;;;;;;;5280387;28;20020;-69
2022/04/04 03:46:59;;;;;;;4.74;3.00;;;;;;;;;;5280582;28;20028;-69
2022/04/04 03:49:31;;;;;;;5.98;2.76;;;;;;;;;;5280818;28;20024;-69
2022/04/04 03:52:03;;;;;;;5.00;3.08;;;;;;;;;;5279894;28;20020;-68
2022/04/04 03:54:34;;;;;;;6.50;2.77;;;;;;;;;;5280522;28;20036;-69
2022/04/04 03:57:05;;;;;;;5.78;2.97;;;;;;;;;;5284472;28;20459;-69
2022/04/04 03:59:36;;;;;;;6.80;2.78;;;;;;;;;;5284000;28;20104;-69
2022/04/04 04:02:07;;;;;;;7.26;3.40;;;;;;;;;;5284768;28;20099;-69
2022/04/04 04:04:38;;;;;;;5.93;2.90;;;;;;;;;;5283564;28;20017;-69
2022/04/04 04:07:14;;;;;;;5.63;3.60;;;;;;;;;;5284574;28;20012;-69
2022/04/04 04:09:45;;;;;;;4.97;3.13;;;;;;;;;;5284055;28;20016;-68
2022/04/04 04:12:16;;;;;;;4.17;3.00;;;;;;;;;;5283780;28;20484;-69
2022/04/04 04:14:51;;;;;;;8.05;3.25;;;;;;;;;;5284015;28;20127;-69
2022/04/04 04:17:24;;;;;;;6.10;3.53;;;;;;;;;;5284526;28;20383;-69
2022/04/04 04:22:46;;;;;;;5.85;3.10;;;;;;;;;;5284176;28;20025;-69
2022/04/04 04:25:18;;;;;;;5.87;3.73;;;;;;;;;;5284495;28;20017;-69
2022/04/04 04:27:50;;;;;;;5.53;3.73;;;;;;;;;;5282914;28;20040;-69
2022/04/04 04:30:21;;;;;;;5.27;3.30;;;;;;;;;;5284304;28;20071;-69
2022/04/04 04:32:53;;;;;;;5.92;3.14;;;;;;;;;;5282842;28;20097;-69
2022/04/04 04:35:24;;;;;;;6.97;3.67;;;;;;;;;;5284300;28;20021;-69
2022/04/04 04:37:55;;;;;;;8.06;4.20;;;;;;;;;;5283548;28;20051;-69
2022/04/04 04:40:27;;;;;;;6.57;3.97;;;;;;;;;;5283400;28;20352;-69
2022/04/04 04:42:59;;;;;;;8.67;3.93;;;;;;;;;;5283621;28;20016;-69
2022/04/04 04:45:30;;;;;;;7.23;3.90;;;;;;;;;;5283839;28;20025;-69
2022/04/04 04:48:01;;;;;;;8.45;3.70;;;;;;;;;;5282884;28;20033;-69
2022/04/04 04:50:33;;;;;;;10.47;4.30;;;;;;;;;;5283751;28;20401;-69
2022/04/04 04:53:04;;;;;;;6.97;3.92;;;;;;;;;;5283574;28;20037;-69
2022/04/04 04:55:35;;;;;;;7.20;3.90;;;;;;;;;;5283052;28;20096;-69
2022/04/04 04:58:06;;;;;;;5.45;3.63;;;;;;;;;;5283452;28;20025;-69
2022/04/04 05:00:38;;;;;;;5.77;3.40;;;;;;;;;;5283533;28;20475;-70
2022/04/04 05:03:24;;;;;;;8.48;4.13;;;;;;;;;;5282402;28;20062;-69
2022/04/04 05:05:55;;;;;;;9.90;4.18;;;;;;;;;;5282599;28;20033;-69
2022/04/04 05:08:27;;;;;;;6.93;4.45;;;;;;;;;;5282848;28;20017;-69
2022/04/04 05:10:59;;;;;;;8.40;4.07;;;;;;;;;;5282709;28;20029;-70
2022/04/04 05:13:30;;;;;;;8.50;5.05;;;;;;;;;;5282852;28;20132;-69
2022/04/04 05:16:07;;;;;;;7.53;4.05;;;;;;;;;;5282184;28;20515;-69
2022/04/04 05:18:38;;;;;;;8.35;4.50;;;;;;;;;;5283124;28;20025;-69
2022/04/04 05:21:09;;;;;;;9.10;4.38;;;;;;;;;;5282953;28;20475;-69
2022/04/04 05:23:41;;;;;;;7.43;4.47;;;;;;;;;;5282281;28;20032;-69
2022/04/04 05:26:12;;;;;;;8.65;4.70;;;;;;;;;;5282861;28;20047;-69
2022/04/04 05:28:43;;;;;;;8.48;4.40;;;;;;;;;;5283095;28;20031;-69
2022/04/04 05:31:14;;;;;;;6.50;5.25;;;;;;;;;;5282208;28;20017;-69
2022/04/04 05:33:45;;;;;;;12.55;5.93;;;;;;;;;;5282302;28;20155;-69
2022/04/04 05:36:17;;;;;;;7.93;4.70;;;;;;;;;;5282121;28;20035;-69
2022/04/04 05:38:51;;;;;;;7.80;4.78;;;;;;;;;;5282056;28;20400;-69
2022/04/04 05:41:22;;;;;;;8.27;4.40;;;;;;;;;;5282905;28;20414;-68
2022/04/04 05:43:53;;;;;;;7.22;4.57;;;;;;;;;;5281562;28;20023;-68
2022/04/04 05:46:25;;;;;;;11.02;5.58;;;;;;;;;;5282936;28;20024;-69
2022/04/04 05:48:56;;;;;;;8.98;5.20;;;;;;;;;;5282244;28;20023;-68
2022/04/04 05:51:28;;;;;;;8.90;5.28;;;;;;;;;;5281680;28;20097;-68
2022/04/04 05:54:00;;;;;;;8.00;4.35;;;;;;;;;;5282014;28;20035;-70
2022/04/04 05:56:32;;;;;;;7.93;5.18;;;;;;;;;;5282593;28;20442;-70
2022/04/04 05:59:04;;;;;;;6.32;3.75;;;;;;;;;;5281577;28;20024;-70
2022/04/04 06:01:35;;;;;;;8.50;4.03;;;;;;;;;;5282074;28;20021;-70
2022/04/04 06:04:06;;;;;;;9.70;4.42;;;;;;;;;;5281520;28;20032;-69
2022/04/04 06:06:37;;;;;;;10.48;5.32;;;;;;;;;;5282161;28;20016;-69
2022/04/04 06:09:08;;;;;;;7.25;4.50;;;;;;;;;;5282054;28;20067;-69
2022/04/04 06:11:39;;;;;;;9.06;5.68;;;;;;;;;;5281362;28;20032;-69
2022/04/04 06:14:11;;;;;;;8.30;5.20;;;;;;;;;;5281582;28;20044;-70
2022/04/04 06:16:42;;;;;;;11.08;5.14;;;;;;;;;;5281896;28;20031;-70
2022/04/04 06:19:13;;;;;;;7.42;4.74;;;;;;;;;;5280501;28;20035;-70
2022/04/04 06:21:44;;;;;;;8.68;5.03;;;;;;;;;;5281502;28;20103;-67
2022/04/04 06:24:15;;;;;;;7.30;3.53;;;;;;;;;;5282020;28;20029;-68
2022/04/04 06:26:47;;;;;;;12.98;5.42;;;;;;;;;;5280172;28;20420;-68
2022/04/04 06:29:18;;;;;;;11.48;5.35;;;;;;;;;;5282037;28;20023;-68
2022/04/04 06:31:51;;;;;;;7.92;5.20;;;;;;;;;;5281320;28;20111;-68
2022/04/04 06:34:22;;;;;;;8.57;5.20;;;;;;;;;;5280833;28;20028;-68
2022/04/04 06:36:53;;;;;;;7.50;3.35;;;;;;;;;;5281000;28;20027;-68
2022/04/04 06:39:25;;;;;;;9.23;5.05;;;;;;;;;;5280946;28;20130;-68
2022/04/04 06:41:56;;;;;;;8.63;5.50;;;;;;;;;;5280817;28;20025;-68
2022/04/04 06:44:27;;;;;;;7.32;4.47;;;;;;;;;;5281186;28;20383;-68
2022/04/04 06:46:59;;;;;;;7.40;4.40;;;;;;;;;;5280370;28;20020;-68
2022/04/04 06:49:31;;;;;;;8.98;4.22;;;;;;;;;;5280891;28;20091;-68
2022/04/04 06:52:02;;;;;;;6.50;3.08;;;;;;;;;;5281434;28;20016;-68
2022/04/04 06:54:34;;;;;;;8.90;5.43;;;;;;;;;;5280146;28;20123;-69
2022/04/04 06:57:05;;;;;;;9.60;4.35;;;;;;;;;;5280966;28;20024;-69
2022/04/04 06:59:36;;;;;;;12.30;5.38;;;;;;;;;;5281022;28;20462;-69
2022/04/04 07:02:07;;;;;;;8.80;5.66;;;;;;;;;;5280160;28;20097;-69
2022/04/04 07:04:40;;;;;;;9.75;5.43;;;;;;;;;;5277484;28;20036;-69
2022/04/04 07:07:12;;;;;;;11.65;5.32;;;;;;;;;;5280796;28;20456;-68
2022/04/04 07:09:44;;;;;;;10.23;2.95;;;;;;;;;;5279907;28;20040;-69
2022/04/04 07:12:15;;;;;;;9.73;3.25;;;;;;;;;;5280584;28;20037;-68
2022/04/04 07:14:46;;;;;;;10.50;4.44;;;;;;;;;;5279271;28;20035;-68
2022/04/04 07:17:18;;;;;;;11.14;4.42;;;;;;;;;;5280896;28;20409;-69
2022/04/04 07:19:49;;;;;;;6.30;2.88;;;;;;;;;;5280384;28;20473;-68
2022/04/04 07:22:21;;;;;;;5.97;2.47;;;;;;;;;;5280188;28;20013;-67
2022/04/04 07:24:52;;;;;;;6.43;3.53;;;;;;;;;;5279781;28;20035;-66
2022/04/04 07:27:23;;;;;;;11.90;4.00;;;;;;;;;;5280840;28;20024;-68
2022/04/04 07:29:54;;;;;;;7.76;3.52;;;;;;;;;;5281447;28;20421;-69
2022/04/04 07:32:25;;;;;;;8.46;3.96;;;;;;;;;;5285001;28;20021;-68
2022/04/04 07:34:57;;;;;;;13.00;4.95;;;;;;;;;;5284182;28;20029;-68
2022/04/04 07:37:28;;;;;;;6.45;4.75;;;;;;;;;;5284507;28;20056;-68
2022/04/04 07:39:59;;;;;;;7.40;3.50;;;;;;;;;;5284849;28;20020;-69
2022/04/04 07:42:30;;;;;;;7.40;3.90;;;;;;;;;;5284434;28;20052;-69
2022/04/04 07:45:02;;;;;;;9.02;4.26;;;;;;;;;;5284793;28;20032;-69
2022/04/04 07:47:33;;;;;;;5.22;4.35;;;;;;;;;;5281437;28;20016;-68
2022/04/04 07:50:06;;;;;;;9.57;4.43;;;;;;;;;;5283701;28;20024;-69
2022/04/04 07:52:37;;;;;;;8.30;3.75;;;;;;;;;;5285054;28;20471;-68
2022/04/04 07:55:09;;;;;;;7.90;4.70;;;;;;;;;;5285003;28;20078;-69
2022/04/04 07:57:40;;;;;;;8.52;4.63;;;;;;;;;;5284162;28;20016;-69
2022/04/04 08:00:14;;;;;;;11.68;4.93;;;;;;;;;;5284631;28;20044;-69
2022/04/04 08:02:45;;;;;;;10.07;5.07;;;;;;;;;;5284151;28;20012;-69
2022/04/04 08:05:16;;;;;;;9.07;4.55;;;;;;;;;;5284229;28;20402;-70
2022/04/04 08:07:48;;;;;;;7.65;3.97;;;;;;;;;;5284313;28;20024;-68
2022/04/04 08:10:19;;;;;;;9.70;4.82;;;;;;;;;;5284866;28;20078;-69
2022/04/04 08:12:50;;;;;;;10.52;5.10;;;;;;;;;;5282763;28;20128;-68
2022/04/04 08:15:21;;;;;;;9.52;3.02;;;;;;;;;;5284663;28;20020;-68
2022/04/04 08:17:52;;;;;;;8.30;3.86;;;;;;;;;;5283082;28;20036;-69
2022/04/04 08:20:24;;;;;;;7.46;3.56;;;;;;;;;;5283804;28;20386;-68
2022/04/04 08:22:55;;;;;;;11.40;4.43;;;;;;;;;;5282556;28;20400;-68
2022/04/04 08:25:26;;;;;;;9.55;3.72;;;;;;;;;;5283478;28;20016;-68
2022/04/04 08:27:57;;;;;;;8.40;3.83;;;;;;;;;;5283540;28;20059;-68
2022/04/04 08:30:29;;;;;;;10.45;3.53;;;;;;;;;;5284298;28;20029;-69
2022/04/04 08:33:01;;;;;;;11.57;3.58;;;;;;;;;;5283241;28;20319;-70
2022/04/04 08:35:32;;;;;;;8.18;2.40;;;;;;;;;;5283834;28;20024;-69
2022/04/04 08:38:03;;;;;;;9.75;3.50;;;;;;;;;;5283289;28;20101;-69
2022/04/04 08:40:35;;;;;;;7.57;4.05;;;;;;;;;;5282842;28;20029;-69
2022/04/04 08:43:09;;;;;;;4.72;2.85;;;;;;;;;;5283168;28;20178;-69
2022/04/04 08:45:44;;;;;;;8.32;3.63;;;;;;;;;;5281642;28;20024;-69
2022/04/04 08:48:16;;;;;;;10.23;4.18;;;;;;;;;;5281198;28;20663;-69
2022/04/04 08:50:47;;;;;;;23.13;4.82;;;;;;;;;;5281904;28;20020;-69
2022/04/04 08:53:19;;;;;;;8.18;2.42;;;;;;;;;;5283157;28;20020;-70
2022/04/04 08:55:50;;;;;;;8.85;2.88;;;;;;;;;;5283269;28;20023;-70
2022/04/04 08:58:21;;;;;;;9.70;4.00;;;;;;;;;;5282257;28;20059;-70
2022/04/04 09:00:52;;;;;;;9.15;3.85;;;;;;;;;;5281114;28;20053;-70
2022/04/04 09:03:29;;;;;;;9.88;3.78;;;;;;;;;;5282816;28;20013;-70
2022/04/04 09:06:03;;;;;;;9.35;4.00;;;;;;;;;;5282638;28;20024;-70
2022/04/04 09:08:45;;;;;;;13.07;3.58;;;;;;;;;;5282421;28;20066;-71
2022/04/04 09:11:16;;;;;;;7.15;3.20;;;;;;;;;;5283022;28;20012;-69
2022/04/04 09:14:06;;;;;;;8.02;2.78;;;;;;;;;;5282577;28;20051;-70
2022/04/04 09:16:37;;;;;;;;;;;;;;;;;;5283838;28;20527;-69
2022/04/04 09:19:09;;;;;;;9.38;3.80;;;;;;;;;;5283123;28;20003;-70
2022/04/04 09:21:47;;;;;;;10.70;3.38;;;;;;;;;;5282219;28;20068;-70
2022/04/04 09:24:18;;;;;;;6.65;3.85;;;;;;;;;;5283535;28;20062;-70
2022/04/04 09:26:51;;;;;;;7.40;3.25;;;;;;;;;;5282377;28;20016;-70
2022/04/04 09:29:22;;;;;;;10.65;5.30;;;;;;;;;;5282355;28;20020;-69
2022/04/04 09:31:55;;;;;;;6.28;3.83;;;;;;;;;;5282411;28;20023;-69
2022/04/04 09:34:26;;;;;;;8.70;4.53;;;;;;;;;;5283263;28;20036;-69
2022/04/04 09:36:58;;;;;;;6.94;3.76;;;;;;;;;;5281886;28;20013;-70
2022/04/04 09:39:33;;;;;;;11.38;3.90;;;;;;;;;;5282874;28;20009;-69
2022/04/04 09:42:13;;;;;;;7.85;4.50;;;;;;;;;;5281955;28;20044;-69
2022/04/04 09:45:01;;;;;;;8.75;4.35;;;;;;;;;;5282252;28;20024;-68
2022/04/04 09:47:45;;;;;;;12.95;5.07;;;;;;;;;;5282459;28;20020;-71
2022/04/04 09:50:29;;;;;;;8.77;4.65;;;;;;;;;;5281901;28;20029;-70
2022/04/04 09:53:00;;;;;;;6.85;5.03;;;;;;;;;;5281283;28;20025;-69
2022/04/04 09:55:33;;;;;;;7.10;4.13;;;;;;;;;;5282520;28;20017;-70
2022/04/04 09:58:06;;;;;;;11.15;4.95;;;;;;;;;;5281479;28;20118;-70
2022/04/04 10:00:38;;;;;;;5.95;3.78;;;;;;;;;;5282293;28;20111;-69
2022/04/04 10:03:13;;;;;;;10.43;4.63;;;;;;;;;;5281308;28;20434;-69
2022/04/04 10:05:49;;;;;;;10.05;4.65;;;;;;;;;;5281743;28;20028;-70
2022/04/04 10:08:23;;;;;;;10.25;4.72;;;;;;;;;;5282375;28;20017;-70
2022/04/04 10:10:54;;;;;;;10.88;4.78;;;;;;;;;;5281052;28;20051;-70
2022/04/04 10:13:26;;;;;;;10.15;5.50;;;;;;;;;;5281963;28;20044;-70
2022/04/04 10:15:57;;;;;;;8.48;4.07;;;;;;;;;;5281376;28;20016;-70
2022/04/04 10:18:29;;;;;;;8.55;5.32;;;;;;;;;;5281604;28;20017;-70
2022/04/04 10:21:00;;;;;;;9.68;5.28;;;;;;;;;;5281686;28;20033;-69
2022/04/04 10:23:32;;;;;;;9.27;6.10;;;;;;;;;;5281956;28;20498;-70
2022/04/04 10:26:03;;;;;;;9.45;5.88;;;;;;;;;;5280961;28;20060;-69
2022/04/04 10:28:37;;;;;;;9.95;5.75;;;;;;;;;;5281588;28;20048;-71
2022/04/04 10:31:16;;;;;;;7.63;4.65;;;;;;;;;;5281823;28;20020;-70
2022/04/04 10:33:48;;;;;;;8.77;4.85;;;;;;;;;;5281197;28;20391;-72
2022/04/04 10:36:25;;;;;;;14.73;5.15;;;;;;;;;;5281810;28;20024;-68
2022/04/04 10:38:57;;;;;;;11.27;5.30;;;;;;;;;;5280557;28;20025;-69
2022/04/04 10:41:29;;;;;;;11.00;5.95;;;;;;;;;;5282014;28;20069;-69
2022/04/04 10:44:00;;;;;;;10.65;6.28;;;;;;;;;;5281536;28;20020;-69
2022/04/04 10:46:31;;;;;;;12.55;6.63;;;;;;;;;;5277076;28;20052;-69
2022/04/04 10:49:04;;;;;;;7.52;6.20;;;;;;;;;;5280655;28;20498;-69
2022/04/04 10:51:36;;;;;;;11.07;6.82;;;;;;;;;;5281210;28;20012;-68
2022/04/04 10:54:09;;;;;;;8.73;5.72;;;;;;;;;;5280242;28;20115;-69
2022/04/04 10:56:42;;;;;;;8.88;5.25;;;;;;;;;;5280986;28;20475;-69
2022/04/04 10:59:16;;;;;;;7.20;5.18;;;;;;;;;;5281248;28;20032;-69
2022/04/04 11:01:49;;;;;;;8.00;4.78;;;;;;;;;;5280562;28;20020;-70
2022/04/04 11:04:23;;;;;;;5.38;3.75;;;;;;;;;;5281386;28;20017;-69
2022/04/04 11:10:03;;;;;;;8.57;5.18;;;;;;;;;;5280864;28;20103;-68
2022/04/04 11:12:54;;;;;;;8.02;4.90;;;;;;;;;;5280996;28;20487;-70
2022/04/04 11:15:42;;;;;;;6.45;4.18;;;;;;;;;;5279973;28;20383;-70
2022/04/04 11:18:14;;;;;;;8.23;5.57;;;;;;;;;;5280748;28;20221;-70
2022/04/04 11:20:59;;;;;;;7.60;4.82;;;;;;;;;;5280072;28;20471;-71
2022/04/04 11:23:37;;;;;;;7.60;4.55;;;;;;;;;;5280627;28;20021;-70
2022/04/04 11:26:18;;;;;;;7.32;5.07;;;;;;;;;;5280514;28;20024;-70
2022/04/04 11:28:51;;;;;;;7.10;4.18;;;;;;;;;;5279160;28;20036;-70
2022/04/04 11:31:22;;;;;;;6.35;4.18;;;;;;;;;;5281039;28;20372;-69
2022/04/04 11:33:54;;;;;;;6.00;4.78;;;;;;;;;;5280692;28;20020;-69
2022/04/04 11:36:30;;;;;;;4.95;3.65;;;;;;;;;;5280672;28;20094;-70
2022/04/04 11:39:07;;;;;;;6.15;4.43;;;;;;;;;;5280848;28;20108;-70
2022/04/04 11:41:46;;;;;;;8.68;5.90;;;;;;;;;;5279843;28;20031;-71
2022/04/04 11:44:26;;;;;;;7.93;6.15;;;;;;;;;;5281277;28;20021;-70
2022/04/04 11:47:01;;;;;;;8.07;4.35;;;;;;;;;;5280489;28;20021;-70
2022/04/04 11:49:34;;;;;;;7.57;6.00;;;;;;;;;;5280099;28;20081;-71
2022/04/04 11:52:06;;;;;;;7.80;5.60;;;;;;;;;;5280624;28;20017;-70
2022/04/04 11:54:44;;;;;;;5.82;5.15;;;;;;;;;;5280682;28;20028;-71
2022/04/04 11:57:16;;;;;;;6.60;5.00;;;;;;;;;;5280309;28;20020;-71
2022/04/04 11:59:49;;;;;;;7.03;4.78;;;;;;;;;;5280271;28;20020;-71
2022/04/04 12:02:23;;;;;;;5.88;4.75;;;;;;;;;;5281149;28;20420;-71
2022/04/04 12:04:56;;;;;;;7.00;4.72;;;;;;;;;;5279487;28;20021;-70
2022/04/04 12:07:31;;;;;;;9.10;6.47;;;;;;;;;;5280837;28;20017;-69
2022/04/04 12:10:02;;;;;;;7.03;5.07;;;;;;;;;;5279658;28;20016;-70
2022/04/04 12:12:33;;;;;;;7.32;4.88;;;;;;;;;;5280251;28;20309;-70
2022/04/04 12:15:04;;;;;;;9.02;5.95;;;;;;;;;;5280534;28;20040;-70
2022/04/04 12:17:36;;;;;;;5.95;3.97;;;;;;;;;;5282508;28;20033;-70
2022/04/04 12:20:11;;;;;;;7.45;5.72;;;;;;;;;;5284218;28;20387;-70
2022/04/04 12:25:32;;;;;;;7.88;5.85;;;;;;;;;;5283619;28;20025;-70
2022/04/04 12:28:04;;;;;;;7.97;5.85;;;;;;;;;;5284279;28;20013;-70
2022/04/04 12:30:36;;;;;;;7.05;5.50;;;;;;;;;;5284174;28;20056;-69
2022/04/04 12:33:09;;;;;;;6.03;4.88;;;;;;;;;;5283240;28;20025;-70
2022/04/04 12:35:41;;;;;;;4.47;3.33;;;;;;;;;;5284139;28;20033;-69
2022/04/04 12:38:25;;;;;;;8.13;7.32;;;;;;;;;;5283378;28;20416;-70
2022/04/04 12:41:03;;;;;;;8.80;6.15;;;;;;;;;;5283654;28;20417;-70
2022/04/04 12:43:35;;;;;;;8.77;7.00;;;;;;;;;;5284020;28;20115;-70
2022/04/04 12:46:07;;;;;;;6.82;6.00;;;;;;;;;;5283225;28;20104;-69
2022/04/04 12:48:39;;;;;;;6.25;4.57;;;;;;;;;;5283910;28;20039;-70
2022/04/04 12:51:23;;;;;;;6.70;6.00;;;;;;;;;;5283982;28;20099;-69
2022/04/04 12:53:55;;;;;;;5.78;4.78;;;;;;;;;;5282472;28;20029;-70
2022/04/04 12:56:27;;;;;;;6.07;4.50;;;;;;;;;;5283833;28;20024;-69
2022/04/04 12:59:03;;;;;;;7.13;5.75;;;;;;;;;;5282585;28;20027;-69
2022/04/04 13:01:35;;;;;;;7.00;6.40;;;;;;;;;;5283354;28;20417;-69
2022/04/04 13:04:17;;;;;;;6.10;5.60;;;;;;;;;;5283193;28;20459;-69
2022/04/04 13:06:48;;;;;;;7.32;5.43;;;;;;;;;;5282269;28;20091;-68
2022/04/04 13:09:24;;;;;;;8.93;4.75;;;;;;;;;;5283576;28;20445;-69
2022/04/04 13:11:55;;;;;;;5.63;5.13;;;;;;;;;;5279971;28;20506;-69
2022/04/04 13:14:26;;;;;;;5.72;4.80;;;;;;;;;;5282726;28;20068;-70
2022/04/04 13:17:02;;;;;;;8.45;6.28;;;;;;;;;;5282468;28;20020;-69
2022/04/04 13:19:33;;;;;;;6.70;5.05;;;;;;;;;;5283045;28;20028;-70
2022/04/04 13:22:05;;;;;;;6.78;5.32;;;;;;;;;;5281284;28;20023;-69
2022/04/04 13:24:36;;;;;;;5.45;4.95;;;;;;;;;;5275155;28;20029;-68
2022/04/04 13:27:07;;;;;;;6.42;5.78;;;;;;;;;;5262077;28;20060;-69
2022/04/04 13:29:38;;;;;;;6.56;5.90;;;;;;;;;;5261097;28;20028;-69
2022/04/04 13:32:09;;;;;;;6.76;6.08;;;;;;;;;;5260962;28;20024;-69
2022/04/04 13:34:41;;;;;;;7.40;6.32;;;;;;;;;;5260446;28;20471;-70
2022/04/04 13:37:13;;;;;;;5.95;5.45;;;;;;;;;;5260932;28;20216;-70
2022/04/04 13:39:44;;;;;;;6.10;5.32;;;;;;;;;;5260456;28;20096;-69
2022/04/04 13:42:15;;;;;;;6.45;5.32;;;;;;;;;;5260385;28;20013;-69
2022/04/04 13:44:47;;;;;;;10.15;7.05;;;;;;;;;;5260720;28;20051;-68
2022/04/04 13:47:18;;;;;;;6.70;5.75;;;;;;;;;;5261258;28;20017;-68
2022/04/04 13:49:49;;;;;;;6.20;5.47;;;;;;;;;;5259335;28;20040;-68
2022/04/04 13:52:20;;;;;;;6.26;5.28;;;;;;;;;;5260680;28;20048;-69
2022/04/04 13:54:51;;;;;;;5.43;3.90;;;;;;;;;;5260429;28;20107;-69
2022/04/04 13:57:23;;;;;;;5.53;4.88;;;;;;;;;;5260419;28;20020;-69
2022/04/04 13:59:54;;;;;;;5.90;5.40;;;;;;;;;;5260437;28;20070;-69
2022/04/04 14:02:25;;;;;;;5.52;5.02;;;;;;;;;;5260127;28;20082;-69
2022/04/04 14:04:56;;;;;;;5.90;4.85;;;;;;;;;;5260299;28;20428;-68
2022/04/04 14:07:27;;;;;;;3.96;3.00;;;;;;;;;;5261188;28;20074;-69
2022/04/04 14:09:59;;;;;;;5.24;4.74;;;;;;;;;;5261831;28;20051;-67
2022/04/04 14:12:31;;;;;;;6.50;5.13;;;;;;;;;;5261812;28;20404;-68
2022/04/04 14:15:04;;;;;;;5.75;5.13;;;;;;;;;;5260129;28;20082;-68
2022/04/04 14:17:35;;;;;;;5.65;5.15;;;;;;;;;;5259182;28;20020;-67
2022/04/04 14:20:07;;;;;;;4.95;4.45;;;;;;;;;;5260085;28;20024;-68
2022/04/04 14:22:38;;;;;;;6.07;5.30;;;;;;;;;;5260393;28;20505;-68
2022/04/04 14:25:09;;;;;;;6.22;5.63;;;;;;;;;;5259372;28;20102;-68
2022/04/04 14:27:41;;;;;;;5.90;5.34;;;;;;;;;;5260292;28;20021;-69
2022/04/04 14:30:13;;;;;;;5.93;5.35;;;;;;;;;;5260285;28;20028;-69
2022/04/04 14:32:46;;;;;;;5.85;5.25;;;;;;;;;;5259086;28;20013;-69
2022/04/04 14:35:17;;;;;;;4.88;4.38;;;;;;;;;;5260103;28;20033;-69
2022/04/04 14:37:49;;;;;;;5.30;4.28;;;;;;;;;;5258784;28;20025;-69
2022/04/04 14:40:21;;;;;;;5.07;4.40;;;;;;;;;;5259555;28;20023;-68
2022/04/04 14:42:52;;;;;;;4.68;4.28;;;;;;;;;;5259671;28;20032;-69
2022/04/04 14:45:25;;;;;;;4.50;3.80;;;;;;;;;;5259182;28;20025;-68
2022/04/04 14:47:56;;;;;;;3.60;3.25;;;;;;;;;;5259219;28;20021;-68
2022/04/04 14:50:27;;;;;;;4.60;4.20;;;;;;;;;;5260097;28;20056;-67
2022/04/04 14:52:58;;;;;;;3.72;3.34;;;;;;;;;;5257974;28;20441;-68
2022/04/04 14:55:30;;;;;;;4.98;3.52;;;;;;;;;;5259584;28;20031;-69
2022/04/04 14:58:01;;;;;;;5.38;4.03;;;;;;;;;;5260380;28;20075;-69
2022/04/04 15:00:34;;;;;;;3.83;3.53;;;;;;;;;;5259455;28;20059;-68
2022/04/04 15:03:05;;;;;;;4.60;4.20;;;;;;;;;;5260143;28;20108;-68
2022/04/04 15:05:37;;;;;;;3.60;3.30;;;;;;;;;;5259619;28;20021;-68
2022/04/04 15:08:08;;;;;;;3.83;3.53;;;;;;;;;;5260375;28;20025;-69
2022/04/04 15:10:41;;;;;;;4.28;3.97;;;;;;;;;;5260325;28;20102;-68
2022/04/04 15:13:13;;;;;;;2.92;2.65;;;;;;;;;;5259030;28;20254;-68
2022/04/04 15:15:44;;;;;;;3.70;3.13;;;;;;;;;;5260117;28;20013;-68
2022/04/04 15:18:16;;;;;;;4.65;3.92;;;;;;;;;;5260757;28;20017;-68
2022/04/04 15:20:47;;;;;;;3.95;3.55;;;;;;;;;;5259371;28;20024;-69